Time;durP1;ratioP1;P1;durP2;ratioP2;P2;SDS_P1;SDS_P2;PMS_P1;PMS_P2;Temp;Humidity;BMP_temperature;BMP_pressure;BME280_temperature;BME280_humidity;BME280_pressure;Samples;Min_cycle;Max_cycle;Signal;HPM_P1;HPM_P2
2021/07/27 00:01:28;;;;;;;15.73;11.90;;;;;;;;;;799507;174;918741;-64
2021/07/27 00:03:54;;;;;;;18.83;12.10;;;;;;;;;;795703;174;918599;-64
2021/07/27 00:06:20;;;;;;;14.80;11.38;;;;;;;;;;794478;174;919450;-65
2021/07/27 00:08:45;;;;;;;18.83;12.53;;;;;;;;;;799214;175;917838;-65
2021/07/27 00:11:11;;;;;;;17.67;12.20;;;;;;;;;;798163;173;918648;-65
2021/07/27 00:13:37;;;;;;;17.37;12.47;;;;;;;;;;783927;176;918223;-65
2021/07/27 00:16:03;;;;;;;14.93;11.03;;;;;;;;;;781893;178;918495;-65
2021/07/27 00:18:30;;;;;;;16.63;12.67;;;;;;;;;;759279;181;918865;-65
2021/07/27 00:20:55;;;;;;;18.37;11.63;;;;;;;;;;760754;183;919515;-65
2021/07/27 00:23:21;;;;;;;21.00;11.60;;;;;;;;;;788747;174;919817;-65
2021/07/27 00:25:48;;;;;;;17.97;12.70;;;;;;;;;;797199;174;918951;-66
2021/07/27 00:28:12;;;;;;;13.90;12.00;;;;;;;;;;790191;174;1020531;-66
2021/07/27 00:30:38;;;;;;;17.10;11.87;;;;;;;;;;790875;174;919371;-66
2021/07/27 00:33:04;;;;;;;20.10;13.37;;;;;;;;;;799152;174;815948;-64
2021/07/27 00:35:31;;;;;;;16.73;12.33;;;;;;;;;;795697;174;918846;-66
2021/07/27 00:38:08;;;;;;;20.77;12.00;;;;;;;;;;794020;174;918513;-66
2021/07/27 00:40:23;;;;;;;16.00;12.30;;;;;;;;;;797377;174;919349;-67
2021/07/27 00:42:49;;;;;;;13.47;11.73;;;;;;;;;;793485;174;1014830;-67
2021/07/27 00:45:15;;;;;;;12.63;11.20;;;;;;;;;;793205;174;919320;-67
2021/07/27 00:47:41;;;;;;;14.55;12.93;;;;;;;;;;791357;174;918170;-66
2021/07/27 00:50:07;;;;;;;21.30;14.50;;;;;;;;;;796462;176;918500;-67
2021/07/27 00:52:33;;;;;;;19.60;13.40;;;;;;;;;;797136;174;924741;-67
2021/07/27 00:54:59;;;;;;;18.80;14.60;;;;;;;;;;793591;174;919555;-67
2021/07/27 00:57:25;;;;;;;21.23;15.33;;;;;;;;;;797617;175;915746;-66
2021/07/27 00:59:51;;;;;;;19.40;15.00;;;;;;;;;;793675;174;915271;-66
2021/07/27 01:02:17;;;;;;;22.27;15.43;;;;;;;;;;783619;176;943504;-67
2021/07/27 01:04:42;;;;;;;18.47;13.37;;;;;;;;;;782082;178;1016917;-67
2021/07/27 01:07:08;;;;;;;18.00;12.50;;;;;;;;;;763992;181;914316;-68
2021/07/27 01:09:34;;;;;;;16.65;12.63;;;;;;;;;;764463;181;919467;-67
2021/07/27 01:12:01;;;;;;;20.40;13.38;;;;;;;;;;782735;178;919112;-65
2021/07/27 01:14:26;;;;;;;16.60;13.30;;;;;;;;;;762253;184;918505;-66
2021/07/27 01:16:53;;;;;;;15.10;12.37;;;;;;;;;;760350;181;918991;-68
2021/07/27 01:20:35;;;;;;;20.10;13.38;;;;;;;;;;763456;181;920292;-66
2021/07/27 01:39:45;;;;;;;18.20;14.53;;;;;;;;;;796980;174;918946;-65
2021/07/27 01:42:12;;;;;;;17.43;12.33;;;;;;;;;;797079;174;920192;-67
2021/07/27 01:44:44;;;;;;;24.30;15.10;;;;;;;;;;792822;174;919739;-66
2021/07/27 01:47:09;;;;;;;17.30;13.47;;;;;;;;;;797006;175;919273;-65
2021/07/27 01:49:35;;;;;;;16.67;13.33;;;;;;;;;;792971;174;1021232;-66
2021/07/27 01:52:00;;;;;;;14.02;12.05;;;;;;;;;;794830;174;919609;-66
2021/07/27 01:54:41;;;;;;;18.90;12.90;;;;;;;;;;792409;174;919592;-66
2021/07/27 01:57:28;;;;;;;17.35;12.73;;;;;;;;;;793401;174;919005;-64
2021/07/27 02:00:06;;;;;;;25.03;13.83;;;;;;;;;;789254;175;917160;-71
2021/07/27 02:02:31;;;;;;;27.83;14.80;;;;;;;;;;779278;178;918675;-69
2021/07/27 02:04:57;;;;;;;26.53;15.80;;;;;;;;;;783943;177;919020;-65
2021/07/27 02:07:23;;;;;;;22.70;14.40;;;;;;;;;;785962;174;919362;-62
2021/07/27 02:09:51;;;;;;;19.70;14.90;;;;;;;;;;792692;174;1027069;-63
2021/07/27 02:12:22;;;;;;;25.73;14.80;;;;;;;;;;796727;174;919661;-62
2021/07/27 02:17:16;;;;;;;22.33;15.53;;;;;;;;;;791173;174;920117;-63
2021/07/27 02:19:42;;;;;;;21.73;15.77;;;;;;;;;;786379;174;919149;-63
2021/07/27 02:22:08;;;;;;;27.77;14.87;;;;;;;;;;788942;174;918932;-63
2021/07/27 02:24:35;;;;;;;21.20;15.03;;;;;;;;;;794791;174;918847;-63
2021/07/27 02:27:00;;;;;;;17.13;14.00;;;;;;;;;;795901;174;920000;-63
2021/07/27 02:29:26;;;;;;;24.13;15.27;;;;;;;;;;801362;173;930312;-62
2021/07/27 02:31:52;;;;;;;16.70;13.90;;;;;;;;;;793719;173;920412;-63
2021/07/27 02:34:18;;;;;;;18.57;14.20;;;;;;;;;;793475;174;919731;-62
2021/07/27 02:36:44;;;;;;;19.10;15.33;;;;;;;;;;802476;173;921758;-63
2021/07/27 02:39:10;;;;;;;16.13;13.53;;;;;;;;;;795667;173;920104;-63
2021/07/27 02:41:35;;;;;;;16.87;12.97;;;;;;;;;;792857;173;919660;-63
2021/07/27 02:44:01;;;;;;;21.93;15.70;;;;;;;;;;791897;173;919705;-63
2021/07/27 02:46:27;;;;;;;17.20;14.13;;;;;;;;;;800487;173;918525;-62
2021/07/27 02:49:01;;;;;;;18.03;13.13;;;;;;;;;;790818;174;918775;-63
2021/07/27 02:51:26;;;;;;;16.50;13.27;;;;;;;;;;782907;176;916853;-62
2021/07/27 02:53:52;;;;;;;16.90;13.03;;;;;;;;;;788794;176;915443;-62
2021/07/27 02:56:20;;;;;;;17.57;13.90;;;;;;;;;;793918;174;916038;-63
2021/07/27 02:58:44;;;;;;;17.57;14.20;;;;;;;;;;795762;174;919487;-63
2021/07/27 03:01:10;;;;;;;18.93;14.13;;;;;;;;;;792733;174;918489;-62
2021/07/27 03:03:36;;;;;;;18.70;14.13;;;;;;;;;;798167;174;915399;-62
2021/07/27 03:06:03;;;;;;;22.73;17.43;;;;;;;;;;793907;174;921462;-63
2021/07/27 03:08:47;;;;;;;18.20;14.57;;;;;;;;;;793418;174;919260;-63
2021/07/27 03:11:00;;;;;;;21.30;15.33;;;;;;;;;;798119;174;881873;-64
2021/07/27 03:13:26;;;;;;;19.23;16.17;;;;;;;;;;790198;174;918706;-64
2021/07/27 03:15:52;;;;;;;19.43;14.77;;;;;;;;;;791443;175;919761;-62
2021/07/27 03:18:18;;;;;;;21.00;16.03;;;;;;;;;;793504;174;918965;-63
2021/07/27 03:20:44;;;;;;;26.02;16.58;;;;;;;;;;800781;174;919389;-63
2021/07/27 03:23:10;;;;;;;18.93;15.53;;;;;;;;;;782988;176;925733;-63
2021/07/27 03:25:36;;;;;;;21.70;14.60;;;;;;;;;;779841;176;1020699;-64
2021/07/27 03:28:02;;;;;;;20.03;15.57;;;;;;;;;;789441;174;918291;-63
2021/07/27 03:30:30;;;;;;;22.20;16.50;;;;;;;;;;777123;176;919835;-63
2021/07/27 03:32:54;;;;;;;21.53;17.27;;;;;;;;;;786944;174;918522;-63
2021/07/27 03:35:20;;;;;;;18.77;16.83;;;;;;;;;;796587;174;919439;-63
2021/07/27 03:37:45;;;;;;;22.73;18.77;;;;;;;;;;789570;177;919588;-63
2021/07/27 03:40:12;;;;;;;22.87;18.43;;;;;;;;;;789460;174;919864;-63
2021/07/27 03:42:38;;;;;;;22.90;17.70;;;;;;;;;;794205;173;918794;-63
2021/07/27 03:45:04;;;;;;;22.57;18.10;;;;;;;;;;789186;176;918579;-63
2021/07/27 03:47:30;;;;;;;23.00;17.83;;;;;;;;;;782255;173;919401;-62
2021/07/27 03:49:56;;;;;;;21.10;16.67;;;;;;;;;;793517;173;919592;-62
2021/07/27 03:52:21;;;;;;;22.07;16.67;;;;;;;;;;800638;173;920192;-63
2021/07/27 03:54:47;;;;;;;21.27;18.50;;;;;;;;;;791429;174;919100;-64
2021/07/27 03:57:13;;;;;;;24.60;16.93;;;;;;;;;;792175;173;919717;-63
2021/07/27 03:59:39;;;;;;;19.87;17.10;;;;;;;;;;799984;174;919044;-64
2021/07/27 04:02:05;;;;;;;26.20;16.60;;;;;;;;;;792767;174;919055;-63
2021/07/27 04:04:34;;;;;;;20.97;15.93;;;;;;;;;;794927;174;918239;-63
2021/07/27 04:06:57;;;;;;;20.97;16.33;;;;;;;;;;792604;174;919169;-62
2021/07/27 04:09:25;;;;;;;23.67;17.90;;;;;;;;;;799463;174;919080;-63
2021/07/27 04:11:51;;;;;;;20.30;15.53;;;;;;;;;;794116;174;919246;-63
2021/07/27 04:14:17;;;;;;;19.67;14.47;;;;;;;;;;794496;174;918997;-63
2021/07/27 04:16:43;;;;;;;21.63;15.53;;;;;;;;;;798479;174;918071;-63
2021/07/27 04:19:08;;;;;;;21.53;14.90;;;;;;;;;;797773;174;919430;-63
2021/07/27 04:21:34;;;;;;;19.10;15.77;;;;;;;;;;782596;176;918532;-63
2021/07/27 04:24:00;;;;;;;18.90;15.50;;;;;;;;;;781149;178;919403;-64
2021/07/27 04:26:26;;;;;;;19.17;15.40;;;;;;;;;;795939;174;918876;-64
2021/07/27 04:28:52;;;;;;;18.93;15.40;;;;;;;;;;795357;174;919804;-63
2021/07/27 04:31:18;;;;;;;24.27;16.30;;;;;;;;;;792285;174;919581;-63
2021/07/27 04:33:43;;;;;;;25.23;17.90;;;;;;;;;;794801;176;920168;-63
2021/07/27 04:36:09;;;;;;;25.70;17.13;;;;;;;;;;785487;174;918709;-63
2021/07/27 04:38:35;;;;;;;25.03;16.97;;;;;;;;;;792841;174;927565;-63
2021/07/27 04:41:11;;;;;;;19.97;17.03;;;;;;;;;;797583;175;919945;-63
2021/07/27 04:43:34;;;;;;;24.20;16.00;;;;;;;;;;789642;176;920395;-63
2021/07/27 04:46:00;;;;;;;21.53;16.97;;;;;;;;;;790101;174;918434;-63
2021/07/27 04:48:26;;;;;;;22.40;18.50;;;;;;;;;;793018;174;919818;-63
2021/07/27 04:50:52;;;;;;;23.90;17.20;;;;;;;;;;802227;174;919926;-62
2021/07/27 04:53:23;;;;;;;23.03;16.90;;;;;;;;;;794487;173;922125;-62
2021/07/27 04:55:48;;;;;;;31.40;19.97;;;;;;;;;;791779;173;919327;-64
2021/07/27 04:58:13;;;;;;;36.13;21.73;;;;;;;;;;796941;173;927334;-63
2021/07/27 05:00:39;;;;;;;27.07;20.00;;;;;;;;;;800068;173;920701;-64
2021/07/27 05:03:05;;;;;;;27.45;21.80;;;;;;;;;;779948;176;919168;-64
2021/07/27 05:05:31;;;;;;;25.03;20.40;;;;;;;;;;801311;173;918556;-64
2021/07/27 05:07:57;;;;;;;24.53;18.40;;;;;;;;;;794060;173;912809;-64
2021/07/27 05:10:22;;;;;;;25.63;20.30;;;;;;;;;;791984;173;917778;-64
2021/07/27 05:12:48;;;;;;;26.90;19.60;;;;;;;;;;790703;174;918885;-63
2021/07/27 05:15:14;;;;;;;33.30;19.00;;;;;;;;;;797425;174;919659;-64
2021/07/27 05:17:40;;;;;;;26.63;18.83;;;;;;;;;;791669;174;919821;-66
2021/07/27 05:20:06;;;;;;;24.10;19.67;;;;;;;;;;791966;175;919692;-65
2021/07/27 05:22:32;;;;;;;25.30;18.00;;;;;;;;;;797218;174;919666;-64
2021/07/27 05:24:58;;;;;;;31.50;22.03;;;;;;;;;;792192;174;1003006;-64
2021/07/27 05:27:24;;;;;;;24.02;17.15;;;;;;;;;;790387;174;919470;-65
2021/07/27 05:29:50;;;;;;;22.60;18.50;;;;;;;;;;781487;178;920604;-67
2021/07/27 05:32:16;;;;;;;34.20;18.50;;;;;;;;;;791574;174;920380;-66
2021/07/27 05:34:42;;;;;;;29.65;17.12;;;;;;;;;;786300;174;1020968;-65
2021/07/27 05:37:07;;;;;;;23.20;17.50;;;;;;;;;;790451;174;919143;-66
2021/07/27 05:39:33;;;;;;;24.30;18.53;;;;;;;;;;794304;174;920049;-65
2021/07/27 05:41:59;;;;;;;22.50;16.77;;;;;;;;;;797014;174;919317;-66
2021/07/27 05:44:25;;;;;;;22.17;19.03;;;;;;;;;;788673;174;919409;-66
2021/07/27 05:46:52;;;;;;;19.00;16.90;;;;;;;;;;796976;174;915068;-65
2021/07/27 05:49:19;;;;;;;24.93;18.63;;;;;;;;;;792639;174;918959;-66
2021/07/27 05:51:43;;;;;;;22.80;17.83;;;;;;;;;;792863;174;915692;-67
2021/07/27 05:54:09;;;;;;;23.10;19.00;;;;;;;;;;797695;174;919299;-66
2021/07/27 05:56:35;;;;;;;22.43;18.17;;;;;;;;;;795162;174;920162;-66
2021/07/27 05:59:01;;;;;;;24.48;18.23;;;;;;;;;;781414;176;915147;-68
2021/07/27 06:01:27;;;;;;;21.17;18.33;;;;;;;;;;791321;176;915178;-67
2021/07/27 06:03:52;;;;;;;22.97;17.97;;;;;;;;;;793341;174;919866;-65
2021/07/27 06:06:18;;;;;;;28.37;20.27;;;;;;;;;;795528;173;919339;-65
2021/07/27 06:08:44;;;;;;;25.37;20.53;;;;;;;;;;793555;173;914962;-65
2021/07/27 06:11:11;;;;;;;27.80;21.10;;;;;;;;;;799980;174;919105;-65
2021/07/27 06:13:36;;;;;;;27.80;20.30;;;;;;;;;;795291;173;919174;-66
2021/07/27 06:16:04;;;;;;;28.50;18.67;;;;;;;;;;792571;174;919327;-65
2021/07/27 06:18:30;;;;;;;25.77;22.17;;;;;;;;;;797285;177;918842;-65
2021/07/27 06:20:56;;;;;;;30.70;22.30;;;;;;;;;;794175;173;918520;-66
2021/07/27 06:23:22;;;;;;;30.23;22.47;;;;;;;;;;792342;175;919189;-65
2021/07/27 06:25:47;;;;;;;33.23;23.40;;;;;;;;;;803009;174;918201;-65
2021/07/27 06:28:13;;;;;;;27.60;21.57;;;;;;;;;;788138;174;918965;-65
2021/07/27 06:30:39;;;;;;;29.10;22.60;;;;;;;;;;793183;174;919261;-65
2021/07/27 06:33:05;;;;;;;25.03;21.03;;;;;;;;;;786645;176;919933;-65
2021/07/27 06:35:31;;;;;;;25.33;22.33;;;;;;;;;;784177;178;918963;-67
2021/07/27 06:37:57;;;;;;;27.27;21.33;;;;;;;;;;761638;181;1124247;-65
2021/07/27 06:40:23;;;;;;;20.37;18.17;;;;;;;;;;767510;181;918581;-65
2021/07/27 06:42:48;;;;;;;27.60;20.27;;;;;;;;;;785843;175;919006;-64
2021/07/27 06:45:15;;;;;;;24.87;19.10;;;;;;;;;;781832;176;919611;-66
2021/07/27 06:47:40;;;;;;;27.83;19.30;;;;;;;;;;784693;174;919550;-65
2021/07/27 06:50:07;;;;;;;24.00;19.47;;;;;;;;;;795203;174;917969;-65
2021/07/27 06:52:32;;;;;;;25.27;18.57;;;;;;;;;;789608;174;919078;-65
2021/07/27 06:54:58;;;;;;;21.57;17.87;;;;;;;;;;785082;174;1022207;-65
2021/07/27 06:57:24;;;;;;;20.23;16.53;;;;;;;;;;792204;174;918749;-65
2021/07/27 06:59:50;;;;;;;20.57;16.70;;;;;;;;;;792359;174;918209;-63
2021/07/27 07:02:16;;;;;;;23.23;17.10;;;;;;;;;;785494;174;919412;-65
2021/07/27 07:04:42;;;;;;;21.90;18.50;;;;;;;;;;791649;174;919591;-63
2021/07/27 07:07:08;;;;;;;19.93;16.13;;;;;;;;;;797663;174;917939;-63
2021/07/27 07:09:34;;;;;;;20.77;17.00;;;;;;;;;;792316;174;919810;-64
2021/07/27 07:11:59;;;;;;;18.70;16.73;;;;;;;;;;790092;174;919389;-63
2021/07/27 07:14:25;;;;;;;19.50;15.60;;;;;;;;;;797587;174;920150;-63
2021/07/27 07:16:51;;;;;;;21.58;16.65;;;;;;;;;;795999;173;917812;-63
2021/07/27 07:19:19;;;;;;;20.43;16.90;;;;;;;;;;799081;173;921237;-64
2021/07/27 07:21:43;;;;;;;23.20;16.57;;;;;;;;;;772054;180;919448;-62
2021/07/27 07:24:09;;;;;;;18.90;13.97;;;;;;;;;;779777;176;919570;-64
2021/07/27 07:26:37;;;;;;;18.40;15.33;;;;;;;;;;774504;178;940986;-64
2021/07/27 07:29:01;;;;;;;18.10;15.37;;;;;;;;;;766673;180;917991;-64
2021/07/27 07:31:27;;;;;;;20.53;14.67;;;;;;;;;;774396;180;916350;-64
2021/07/27 07:33:54;;;;;;;20.00;14.30;;;;;;;;;;786513;174;916212;-63
2021/07/27 07:36:19;;;;;;;15.63;12.90;;;;;;;;;;789602;174;920201;-64
2021/07/27 07:38:44;;;;;;;14.93;13.33;;;;;;;;;;790110;177;921106;-62
2021/07/27 07:41:10;;;;;;;15.40;13.80;;;;;;;;;;778742;176;915601;-63
2021/07/27 07:43:36;;;;;;;14.40;12.00;;;;;;;;;;777110;178;938741;-63
2021/07/27 07:46:02;;;;;;;14.30;12.80;;;;;;;;;;778929;179;920494;-65
2021/07/27 07:48:28;;;;;;;17.20;12.50;;;;;;;;;;775880;179;918844;-63
2021/07/27 07:50:54;;;;;;;14.63;13.13;;;;;;;;;;771189;175;919394;-63
2021/07/27 07:53:19;;;;;;;15.90;11.97;;;;;;;;;;792171;174;1020609;-62
2021/07/27 07:55:45;;;;;;;15.53;11.83;;;;;;;;;;794343;174;912316;-64
2021/07/27 07:58:11;;;;;;;14.17;12.70;;;;;;;;;;786208;174;919535;-63
2021/07/27 08:00:37;;;;;;;16.23;13.53;;;;;;;;;;788214;174;921307;-63
2021/07/27 08:03:03;;;;;;;15.83;12.90;;;;;;;;;;776793;178;917449;-63
2021/07/27 08:05:29;;;;;;;14.17;12.70;;;;;;;;;;759867;181;918707;-62
2021/07/27 08:07:54;;;;;;;15.03;12.80;;;;;;;;;;767106;181;919022;-64
2021/07/27 08:10:20;;;;;;;23.53;14.03;;;;;;;;;;772580;180;941879;-63
2021/07/27 08:12:47;;;;;;;18.13;13.10;;;;;;;;;;754517;181;1168974;-64
2021/07/27 08:15:12;;;;;;;13.83;11.40;;;;;;;;;;769107;179;920645;-63
2021/07/27 08:17:39;;;;;;;14.27;12.80;;;;;;;;;;771556;180;921807;-63
2021/07/27 08:20:05;;;;;;;12.50;11.20;;;;;;;;;;783541;176;920052;-63
2021/07/27 08:22:31;;;;;;;12.50;11.20;;;;;;;;;;764261;181;920110;-63
2021/07/27 08:24:57;;;;;;;11.30;10.17;;;;;;;;;;795568;174;918985;-64
2021/07/27 08:27:23;;;;;;;15.40;11.00;;;;;;;;;;806216;173;920941;-64
2021/07/27 08:29:49;;;;;;;12.83;11.03;;;;;;;;;;784155;173;919327;-63
2021/07/27 08:32:14;;;;;;;18.12;11.23;;;;;;;;;;791396;177;918050;-64
2021/07/27 08:34:42;;;;;;;14.00;10.93;;;;;;;;;;799439;173;917418;-64
2021/07/27 08:37:08;;;;;;;16.03;12.70;;;;;;;;;;795289;173;919101;-63
2021/07/27 08:39:33;;;;;;;15.40;10.87;;;;;;;;;;792977;173;918796;-64
2021/07/27 08:42:01;;;;;;;11.57;10.38;;;;;;;;;;785486;173;915898;-64
2021/07/27 08:44:26;;;;;;;11.90;10.50;;;;;;;;;;798154;173;915500;-65
2021/07/27 08:46:52;;;;;;;14.53;10.43;;;;;;;;;;781845;174;922084;-65
2021/07/27 08:49:18;;;;;;;15.47;10.57;;;;;;;;;;799842;174;915895;-67
2021/07/27 08:51:44;;;;;;;13.60;10.00;;;;;;;;;;775850;178;917945;-64
2021/07/27 08:54:09;;;;;;;15.50;10.80;;;;;;;;;;792716;174;918981;-64
2021/07/27 08:56:35;;;;;;;14.17;9.90;;;;;;;;;;792068;174;926069;-65
2021/07/27 08:59:01;;;;;;;11.13;10.00;;;;;;;;;;799686;174;919399;-63
2021/07/27 09:01:27;;;;;;;13.67;10.40;;;;;;;;;;796386;174;916994;-65
2021/07/27 09:03:53;;;;;;;15.10;10.07;;;;;;;;;;791014;174;915833;-64
2021/07/27 09:06:21;;;;;;;10.80;8.50;;;;;;;;;;800882;174;916424;-65
2021/07/27 09:08:47;;;;;;;9.73;7.87;;;;;;;;;;795324;176;919564;-66
2021/07/27 09:11:13;;;;;;;9.90;8.47;;;;;;;;;;782829;174;1017283;-64
2021/07/27 09:13:39;;;;;;;11.23;8.50;;;;;;;;;;801453;174;915614;-64
2021/07/27 09:16:05;;;;;;;12.80;9.30;;;;;;;;;;779809;174;919112;-64
2021/07/27 09:18:31;;;;;;;12.90;8.83;;;;;;;;;;790454;174;916212;-65
2021/07/27 09:20:57;;;;;;;9.70;7.12;;;;;;;;;;790479;174;919255;-65
2021/07/27 09:23:22;;;;;;;9.30;6.70;;;;;;;;;;796371;174;1027797;-64
2021/07/27 09:25:49;;;;;;;10.60;8.20;;;;;;;;;;791287;174;919333;-64
2021/07/27 09:28:14;;;;;;;9.70;7.47;;;;;;;;;;793320;174;919826;-64
2021/07/27 09:30:40;;;;;;;9.30;7.30;;;;;;;;;;797851;174;919650;-64
2021/07/27 09:33:06;;;;;;;10.37;7.60;;;;;;;;;;790000;176;918795;-64
2021/07/27 09:35:31;;;;;;;8.47;7.57;;;;;;;;;;787145;174;918967;-64
2021/07/27 09:38:15;;;;;;;8.87;7.30;;;;;;;;;;789223;174;919042;-65
2021/07/27 09:40:48;;;;;;;7.93;6.33;;;;;;;;;;795236;173;918644;-65
2021/07/27 09:43:13;;;;;;;9.93;8.80;;;;;;;;;;800541;173;920944;-65
2021/07/27 09:45:38;;;;;;;8.20;7.40;;;;;;;;;;794563;174;917084;-66
2021/07/27 09:48:04;;;;;;;9.10;8.17;;;;;;;;;;793423;173;918511;-65
2021/07/27 09:50:30;;;;;;;12.83;8.70;;;;;;;;;;800965;173;919913;-66
2021/07/27 09:52:56;;;;;;;11.20;8.00;;;;;;;;;;792583;173;919497;-66
2021/07/27 09:55:22;;;;;;;18.30;7.90;;;;;;;;;;794189;173;919731;-66
2021/07/27 09:57:48;;;;;;;8.10;6.63;;;;;;;;;;794498;173;918891;-66
2021/07/27 10:00:14;;;;;;;9.40;7.57;;;;;;;;;;796031;174;917790;-65
2021/07/27 10:02:40;;;;;;;8.90;7.70;;;;;;;;;;795399;174;1021786;-64
2021/07/27 10:05:08;;;;;;;11.53;8.50;;;;;;;;;;794618;174;919044;-64
2021/07/27 10:07:32;;;;;;;8.57;6.37;;;;;;;;;;797079;174;918395;-64
2021/07/27 10:10:04;;;;;;;7.87;7.07;;;;;;;;;;793186;174;919489;-64
2021/07/27 10:12:30;;;;;;;11.13;7.50;;;;;;;;;;791782;174;918742;-63
2021/07/27 10:14:55;;;;;;;11.93;7.43;;;;;;;;;;792190;174;920987;-65
2021/07/27 10:17:21;;;;;;;7.60;6.53;;;;;;;;;;799501;174;920249;-65
2021/07/27 10:19:48;;;;;;;7.72;6.10;;;;;;;;;;792655;174;920198;-65
2021/07/27 10:22:15;;;;;;;7.87;6.17;;;;;;;;;;793009;174;922081;-64
2021/07/27 10:24:41;;;;;;;7.33;5.73;;;;;;;;;;797155;176;919621;-63
2021/07/27 10:27:06;;;;;;;10.50;7.20;;;;;;;;;;793013;175;917907;-65
2021/07/27 10:29:31;;;;;;;8.43;7.60;;;;;;;;;;793503;174;920107;-65
2021/07/27 10:31:59;;;;;;;17.60;6.40;;;;;;;;;;797153;174;919479;-64
2021/07/27 10:34:23;;;;;;;8.00;6.70;;;;;;;;;;784751;176;919195;-64
2021/07/27 10:36:51;;;;;;;7.90;7.10;;;;;;;;;;777653;176;918679;-64
2021/07/27 10:39:15;;;;;;;7.30;5.90;;;;;;;;;;784042;176;918652;-65
2021/07/27 10:41:45;;;;;;;9.63;6.27;;;;;;;;;;780529;178;918559;-65
2021/07/27 10:44:12;;;;;;;6.30;5.37;;;;;;;;;;770496;176;919398;-66
2021/07/27 10:46:38;;;;;;;11.60;6.10;;;;;;;;;;781293;176;920342;-65
2021/07/27 10:49:04;;;;;;;12.00;6.50;;;;;;;;;;799436;174;918045;-66
2021/07/27 10:51:29;;;;;;;8.00;5.50;;;;;;;;;;790553;175;914625;-66
2021/07/27 10:53:57;;;;;;;6.67;5.80;;;;;;;;;;780626;174;916232;-65
2021/07/27 10:56:22;;;;;;;9.57;5.13;;;;;;;;;;793571;173;923967;-65
2021/07/27 10:58:47;;;;;;;6.73;5.17;;;;;;;;;;787225;177;912496;-65
2021/07/27 11:01:13;;;;;;;6.30;5.30;;;;;;;;;;781114;175;1021372;-66
2021/07/27 11:03:41;;;;;;;5.50;4.70;;;;;;;;;;797598;173;885410;-66
2021/07/27 11:06:05;;;;;;;6.33;5.07;;;;;;;;;;803388;174;627148;-65
2021/07/27 11:08:30;;;;;;;6.00;5.33;;;;;;;;;;805028;174;619690;-65
2021/07/27 11:11:02;;;;;;;5.67;4.70;;;;;;;;;;788302;176;620162;-65
2021/07/27 11:13:28;;;;;;;5.77;4.90;;;;;;;;;;803417;174;629895;-65
2021/07/27 11:15:54;;;;;;;6.60;4.43;;;;;;;;;;801993;174;621245;-67
2021/07/27 11:18:19;;;;;;;6.60;4.63;;;;;;;;;;796715;174;625114;-65
2021/07/27 11:20:45;;;;;;;6.20;4.70;;;;;;;;;;797722;174;626322;-66
2021/07/27 11:23:12;;;;;;;7.47;5.10;;;;;;;;;;802610;174;629419;-66
2021/07/27 11:25:38;;;;;;;6.40;4.53;;;;;;;;;;800160;174;627332;-64
2021/07/27 11:28:10;;;;;;;6.67;4.70;;;;;;;;;;795943;174;627193;-65
2021/07/27 11:30:37;;;;;;;9.18;4.95;;;;;;;;;;802100;175;618522;-65
2021/07/27 11:33:06;;;;;;;8.33;5.60;;;;;;;;;;796842;174;625181;-66
2021/07/27 11:35:32;;;;;;;6.30;4.00;;;;;;;;;;796350;174;637647;-64
2021/07/27 11:37:59;;;;;;;6.72;5.30;;;;;;;;;;793684;174;919504;-64
2021/07/27 11:40:25;;;;;;;7.40;5.37;;;;;;;;;;800586;175;625941;-64
2021/07/27 11:42:56;;;;;;;7.33;4.47;;;;;;;;;;793772;176;919364;-64
2021/07/27 11:45:23;;;;;;;7.47;4.70;;;;;;;;;;796522;174;919247;-64
2021/07/27 11:47:48;;;;;;;6.53;5.13;;;;;;;;;;783222;176;1021514;-64
2021/07/27 11:50:14;;;;;;;7.47;5.20;;;;;;;;;;783209;178;918720;-64
2021/07/27 11:52:40;;;;;;;8.87;5.97;;;;;;;;;;762328;181;919606;-64
2021/07/27 11:55:06;;;;;;;12.17;5.40;;;;;;;;;;760807;181;919634;-65
2021/07/27 11:57:32;;;;;;;6.63;5.37;;;;;;;;;;777040;180;918251;-64
2021/07/27 12:00:03;;;;;;;11.43;5.30;;;;;;;;;;788506;174;919301;-66
2021/07/27 12:02:29;;;;;;;6.90;5.40;;;;;;;;;;786461;173;1021600;-66
2021/07/27 12:04:55;;;;;;;7.07;4.90;;;;;;;;;;793844;174;923113;-66
2021/07/27 12:07:23;;;;;;;6.37;4.83;;;;;;;;;;790345;175;918247;-65
2021/07/27 12:09:47;;;;;;;7.50;5.37;;;;;;;;;;784199;174;919230;-66
2021/07/27 12:12:13;;;;;;;9.50;6.03;;;;;;;;;;784615;174;918754;-65
2021/07/27 12:14:38;;;;;;;10.23;5.93;;;;;;;;;;798122;173;918868;-65
2021/07/27 12:17:04;;;;;;;6.40;5.23;;;;;;;;;;794136;174;919179;-65
2021/07/27 12:19:30;;;;;;;7.20;5.53;;;;;;;;;;795546;173;919333;-67
2021/07/27 12:21:56;;;;;;;7.23;4.97;;;;;;;;;;785642;176;918871;-66
2021/07/27 12:24:22;;;;;;;4.90;4.33;;;;;;;;;;789056;174;919521;-65
2021/07/27 12:26:48;;;;;;;6.60;4.90;;;;;;;;;;792309;175;918719;-66
2021/07/27 12:29:14;;;;;;;6.20;5.05;;;;;;;;;;787710;176;918780;-65
2021/07/27 12:31:40;;;;;;;5.70;4.70;;;;;;;;;;784241;176;919119;-65
2021/07/27 12:34:06;;;;;;;6.83;4.93;;;;;;;;;;790458;175;919412;-64
2021/07/27 12:36:32;;;;;;;5.70;4.77;;;;;;;;;;791799;174;919428;-65
2021/07/27 12:38:58;;;;;;;6.80;4.80;;;;;;;;;;800446;174;919020;-64
2021/07/27 12:41:23;;;;;;;7.57;5.90;;;;;;;;;;793483;174;921685;-64
2021/07/27 12:43:49;;;;;;;6.43;3.90;;;;;;;;;;793740;174;918421;-65
2021/07/27 12:46:17;;;;;;;6.03;4.20;;;;;;;;;;795986;174;918952;-64
2021/07/27 12:48:41;;;;;;;7.90;5.43;;;;;;;;;;792943;173;919197;-64
2021/07/27 12:51:08;;;;;;;6.50;5.20;;;;;;;;;;784057;173;918588;-65
2021/07/27 12:53:33;;;;;;;6.47;4.90;;;;;;;;;;790538;174;918948;-66
2021/07/27 12:55:59;;;;;;;6.00;4.73;;;;;;;;;;791921;174;918593;-65
2021/07/27 12:58:25;;;;;;;5.00;4.33;;;;;;;;;;791558;174;917815;-64
2021/07/27 13:00:50;;;;;;;5.80;4.50;;;;;;;;;;788652;174;1121001;-67
2021/07/27 13:03:18;;;;;;;7.17;4.73;;;;;;;;;;794061;174;918136;-65
2021/07/27 13:05:42;;;;;;;6.80;5.63;;;;;;;;;;791836;174;919469;-65
2021/07/27 13:08:08;;;;;;;10.38;5.57;;;;;;;;;;793434;174;919660;-66
2021/07/27 13:10:34;;;;;;;7.90;5.10;;;;;;;;;;798010;174;919670;-65
2021/07/27 13:12:59;;;;;;;8.57;5.27;;;;;;;;;;793862;173;917632;-65
2021/07/27 13:15:25;;;;;;;7.50;4.83;;;;;;;;;;793649;173;927870;-67
2021/07/27 13:17:51;;;;;;;8.13;5.20;;;;;;;;;;800997;173;920239;-65
2021/07/27 13:20:17;;;;;;;5.50;4.80;;;;;;;;;;795653;173;919402;-64
2021/07/27 13:22:43;;;;;;;6.90;4.83;;;;;;;;;;793796;173;918818;-65
2021/07/27 13:25:09;;;;;;;11.27;6.07;;;;;;;;;;793334;173;928189;-65
2021/07/27 13:27:36;;;;;;;6.30;5.60;;;;;;;;;;795822;176;920018;-65
2021/07/27 13:30:01;;;;;;;5.97;4.90;;;;;;;;;;791611;173;919239;-65
2021/07/27 13:32:27;;;;;;;8.07;5.10;;;;;;;;;;791943;174;917793;-66
2021/07/27 13:34:52;;;;;;;6.20;5.10;;;;;;;;;;796863;174;918664;-66
2021/07/27 13:37:18;;;;;;;6.70;5.63;;;;;;;;;;793526;174;919142;-65
2021/07/27 13:39:44;;;;;;;7.47;5.90;;;;;;;;;;793718;174;919283;-64
2021/07/27 13:42:10;;;;;;;5.37;4.77;;;;;;;;;;799077;174;919478;-66
2021/07/27 13:44:36;;;;;;;5.67;4.77;;;;;;;;;;783649;174;919228;-65
2021/07/27 13:47:02;;;;;;;9.07;5.03;;;;;;;;;;793835;176;919169;-65
2021/07/27 13:49:28;;;;;;;8.53;5.70;;;;;;;;;;786671;176;918284;-65
2021/07/27 13:51:53;;;;;;;6.73;5.10;;;;;;;;;;785690;174;919581;-65
2021/07/27 13:54:19;;;;;;;6.80;5.27;;;;;;;;;;789952;174;918753;-66
2021/07/27 13:56:45;;;;;;;8.50;5.30;;;;;;;;;;791463;174;918373;-66
2021/07/27 13:59:11;;;;;;;8.50;5.27;;;;;;;;;;792521;176;918761;-66
2021/07/27 14:01:37;;;;;;;6.70;5.60;;;;;;;;;;783096;174;920019;-63
2021/07/27 14:04:03;;;;;;;6.67;5.60;;;;;;;;;;792311;174;919101;-66
2021/07/27 14:06:29;;;;;;;8.80;5.70;;;;;;;;;;799784;174;918499;-65
2021/07/27 14:08:54;;;;;;;9.30;5.70;;;;;;;;;;791566;174;973714;-65
2021/07/27 14:11:20;;;;;;;6.27;4.67;;;;;;;;;;790375;174;918334;-66
2021/07/27 14:13:46;;;;;;;10.93;5.53;;;;;;;;;;797705;174;918857;-65
2021/07/27 14:16:13;;;;;;;10.93;5.93;;;;;;;;;;790325;174;919858;-65
2021/07/27 14:18:38;;;;;;;7.60;5.40;;;;;;;;;;794033;174;919138;-66
2021/07/27 14:21:04;;;;;;;6.23;5.37;;;;;;;;;;798609;174;917989;-64
2021/07/27 14:23:29;;;;;;;6.87;5.17;;;;;;;;;;790339;174;919489;-65
2021/07/27 14:25:55;;;;;;;11.43;6.10;;;;;;;;;;794176;173;919648;-65
2021/07/27 14:28:21;;;;;;;8.77;5.37;;;;;;;;;;793553;173;919117;-66